createdAt,value
2023-01-18T00:01:59.917Z,-11167.94
2023-01-18T00:05:08.963Z,-11167.66
2023-01-18T00:08:19.036Z,-11168.78
2023-01-18T00:11:25.580Z,-11168.66
2023-01-18T00:14:32.185Z,-11164.72
2023-01-18T00:17:47.808Z,-11166.41
2023-01-18T00:20:55.627Z,-11163.59
2023-01-18T00:24:02.160Z,-11158.81
2023-01-18T00:27:10.489Z,-11155.84
2023-01-18T00:30:18.715Z,-11158.09
2023-01-18T00:33:25.043Z,-11159.22
2023-01-18T00:36:33.246Z,-11159.38
2023-01-18T00:39:41.001Z,-11160.34
2023-01-18T00:43:04.985Z,-11159.38
2023-01-18T00:46:13.489Z,-11164.16
2023-01-18T00:49:19.868Z,-11161.06
2023-01-18T00:52:27.632Z,-11162.19
2023-01-18T00:55:33.759Z,-11164.84
2023-01-18T00:58:39.991Z,-11165.41
2023-01-18T01:01:46.173Z,-11166.13
2023-01-18T01:05:09.984Z,-11161.91
2023-01-18T01:08:18.124Z,-11157.13
2023-01-18T01:11:24.513Z,-11150.09
2023-01-18T01:14:48.348Z,-11150.66
2023-01-18T01:18:12.578Z,-11154.59
2023-01-18T01:21:36.068Z,-11147.84
2023-01-18T01:25:00.997Z,-11147.69
2023-01-18T01:28:07.748Z,-11151.78
2023-01-18T01:31:16.167Z,-11149.94
2023-01-18T01:34:22.960Z,-11150.22
2023-01-18T01:37:29.503Z,-11151.91
2023-01-18T01:40:37.017Z,-11151.22
2023-01-18T01:43:46.860Z,-11148.53
2023-01-18T01:46:57.354Z,-11149.53
2023-01-18T01:50:10.871Z,-11146.28
2023-01-18T01:53:17.201Z,-11146.56
2023-01-18T01:56:25.008Z,-11151.63
2023-01-18T01:59:31.335Z,-11147.00
2023-01-18T02:02:38.684Z,-11147.00
2023-01-18T02:05:49.338Z,-11155.16
2023-01-18T02:08:55.284Z,-11157.69
2023-01-18T02:12:03.265Z,-11162.75
2023-01-18T02:15:10.997Z,-11161.06
2023-01-18T02:18:26.111Z,-11151.22
2023-01-18T02:21:39.294Z,-11158.53
2023-01-18T02:25:09.198Z,-11151.22
2023-01-18T02:28:18.579Z,-11148.69
2023-01-18T02:31:30.098Z,-11145.31
2023-01-18T02:34:44.444Z,-11143.91
2023-01-18T02:38:02.380Z,-11152.06
2023-01-18T02:41:14.368Z,-11146.44
2023-01-18T02:44:48.996Z,-11151.50
2023-01-18T02:47:56.776Z,-11147.84
2023-01-18T02:51:02.916Z,-11154.72
2023-01-18T02:54:10.981Z,-11148.13
2023-01-18T02:57:18.674Z,-11155.00
2023-01-18T03:00:27.770Z,-11152.91
2023-01-18T03:03:35.953Z,-11143.91
2023-01-18T03:06:48.366Z,-11142.94
2023-01-18T03:09:56.079Z,-11147.84
2023-01-18T03:13:10.082Z,-11151.50
2023-01-18T03:16:24.134Z,-11147.56
2023-01-18T03:19:59.444Z,-11152.19
2023-01-18T03:23:30.101Z,-11148.97
2023-01-18T03:26:41.023Z,-11151.22
2023-01-18T03:30:05.547Z,-11155.16
2023-01-18T03:33:31.871Z,-11152.34
2023-01-18T03:36:42.098Z,-11152.19
2023-01-18T03:39:52.677Z,-11149.25
2023-01-18T03:43:07.413Z,-11152.19
2023-01-18T03:46:16.467Z,-11152.06
2023-01-18T03:49:24.675Z,-11166.13
2023-01-18T03:52:38.121Z,-11163.88
2023-01-18T03:55:49.014Z,-11167.25
2023-01-18T03:58:59.688Z,-11169.34
2023-01-18T04:02:07.974Z,-11169.06
2023-01-18T04:05:16.850Z,-11171.88
2023-01-18T04:08:23.422Z,-11172.59
2023-01-18T04:11:30.124Z,-11170.47
2023-01-18T04:14:36.282Z,-11174.41
2023-01-18T04:17:42.619Z,-11173.56
2023-01-18T04:20:50.452Z,-11178.47
2023-01-18T04:23:56.789Z,-11179.19
2023-01-18T04:27:03.000Z,-11176.38
2023-01-18T04:30:10.751Z,-11176.50
2023-01-18T04:33:18.057Z,-11179.31
2023-01-18T04:36:26.084Z,-11179.88
2023-01-18T04:39:32.394Z,-11179.31
2023-01-18T04:42:38.588Z,-11183.53
2023-01-18T04:45:46.427Z,-11186.78
2023-01-18T04:48:53.589Z,-11187.34
2023-01-18T04:52:01.195Z,-11189.31
2023-01-18T04:55:08.776Z,-11185.38
2023-01-18T04:58:15.203Z,-11189.16
2023-01-18T05:01:22.666Z,-11188.03
2023-01-18T05:04:29.057Z,-11191.69
2023-01-18T05:07:39.333Z,-11188.59
2023-01-18T05:10:45.521Z,-11188.88
2023-01-18T05:13:52.047Z,-11189.88
2023-01-18T05:16:58.370Z,-11187.75
2023-01-18T05:20:06.450Z,-11190.28
2023-01-18T05:23:14.455Z,-11186.34
2023-01-18T05:26:23.659Z,-11187.34
2023-01-18T05:29:30.056Z,-11189.16
2023-01-18T05:32:37.070Z,-11186.06
2023-01-18T05:35:43.219Z,-11189.59
2023-01-18T05:38:50.716Z,-11187.06
2023-01-18T05:41:59.970Z,-11185.38
2023-01-18T05:45:07.312Z,-11186.63
2023-01-18T05:48:13.651Z,-11188.75
2023-01-18T05:51:19.894Z,-11190.84
2023-01-18T05:54:27.686Z,-11188.59
2023-01-18T05:57:34.194Z,-11191.13
2023-01-18T06:00:40.733Z,-11190.56
2023-01-18T06:03:46.766Z,-11191.13
2023-01-18T06:06:52.822Z,-11189.16
2023-01-18T06:10:00.798Z,-11189.44
2023-01-18T06:13:07.166Z,-11188.03
2023-01-18T06:16:13.738Z,-11189.03
2023-01-18T06:19:20.300Z,-11187.91
2023-01-18T06:22:26.649Z,-11188.31
2023-01-18T06:25:34.230Z,-11189.88
2023-01-18T06:28:40.607Z,-11189.88
2023-01-18T06:31:47.017Z,-11191.69
2023-01-18T06:34:53.067Z,-11193.94
2023-01-18T06:37:59.557Z,-11194.22
2023-01-18T06:41:07.617Z,-11191.97
2023-01-18T06:44:13.647Z,-11195.34
2023-01-18T06:47:20.912Z,-11193.81
2023-01-18T06:50:27.376Z,-11199.72
2023-01-18T06:53:35.512Z,-11198.03
2023-01-18T06:56:44.653Z,-11202.66
2023-01-18T06:59:53.439Z,-11200.13
2023-01-18T07:03:00.407Z,-11202.25
2023-01-18T07:06:07.719Z,-11202.09
2023-01-18T07:09:14.752Z,-11206.03
2023-01-18T07:12:23.440Z,-11206.59
2023-01-18T07:15:29.773Z,-11225.44
2023-01-18T07:18:36.275Z,-11214.34
2023-01-18T07:21:42.678Z,-11222.34
2023-01-18T07:24:48.906Z,-11222.63
2023-01-18T07:27:58.486Z,-11226.00
2023-01-18T07:31:06.453Z,-11221.78
2023-01-18T07:34:13.534Z,-11220.66
2023-01-18T07:37:19.840Z,-11224.31
2023-01-18T07:40:26.044Z,-11226.56
2023-01-18T07:43:34.536Z,-11218.13
2023-01-18T07:46:42.759Z,-11219.81
2023-01-18T07:49:48.863Z,-11218.97
2023-01-18T07:52:56.987Z,-11221.38
2023-01-18T07:56:04.603Z,-11220.66
2023-01-18T07:59:12.292Z,-11224.47
2023-01-18T08:02:18.881Z,-11215.59
2023-01-18T08:05:27.843Z,-11231.63
2023-01-18T08:08:34.456Z,-11229.53
2023-01-18T08:11:40.803Z,-11233.03
2023-01-18T08:14:48.374Z,-11229.37
2023-01-18T08:17:55.567Z,-11228.53
2023-01-18T08:21:02.191Z,-11226.84
2023-01-18T08:24:08.801Z,-11228.41
2023-01-18T08:27:16.822Z,-11235.03
2023-01-18T08:30:28.092Z,-11246.56
2023-01-18T08:33:38.213Z,-11238.38
2023-01-18T08:36:44.626Z,-11251.63
2023-01-18T08:39:50.831Z,-11240.63
2023-01-18T08:42:58.324Z,-11245.00
2023-01-18T08:46:06.223Z,-11253.31
2023-01-18T08:49:12.577Z,-11248.66
2023-01-18T08:52:18.879Z,-11262.88
2023-01-18T08:55:25.187Z,-11259.34
2023-01-18T08:58:33.277Z,-11283.41
2023-01-18T09:01:41.065Z,-11269.63
2023-01-18T09:04:48.765Z,-11282.44
2023-01-18T09:07:55.875Z,-11287.34
2023-01-18T09:11:03.859Z,-11281.03
2023-01-18T09:14:09.970Z,-11281.16
2023-01-18T09:17:19.363Z,-11295.81
2023-01-18T09:20:26.123Z,-11280.19
2023-01-18T09:23:32.700Z,-11286.78
2023-01-18T09:26:38.888Z,-11287.06
2023-01-18T09:29:47.197Z,-11276.38
2023-01-18T09:32:54.839Z,-11290.47
2023-01-18T09:40:55.440Z,-11298.06
2023-01-18T09:44:07.035Z,-11305.38
2023-01-18T09:47:18.174Z,-11295.66
2023-01-18T09:50:26.251Z,-11303.00
2023-01-18T09:53:54.416Z,-11290.47
2023-01-18T09:57:07.052Z,-11305.94
2023-01-18T10:00:21.752Z,-11309.59
2023-01-18T10:03:35.334Z,-11320.44
2023-01-18T10:06:49.195Z,-11316.09
2023-01-18T10:09:57.593Z,-11310.31
2023-01-18T10:13:25.075Z,-11314.81
2023-01-18T10:16:33.058Z,-11317.50
2023-01-18T10:19:40.372Z,-11326.22
2023-01-18T10:22:52.941Z,-11320.88
2023-01-18T10:26:04.112Z,-11322.69
2023-01-18T10:29:26.624Z,-11315.53
2023-01-18T10:32:36.470Z,-11317.22
2023-01-18T10:35:48.315Z,-11320.88
2023-01-18T10:39:01.636Z,-11332.69
2023-01-18T10:42:21.811Z,-11304.13
2023-01-18T10:45:30.542Z,-11324.94
2023-01-18T10:48:38.906Z,-11307.06
2023-01-18T10:51:46.432Z,-11297.78
2023-01-18T10:54:58.140Z,-11297.22
2023-01-18T10:58:04.098Z,-11291.31
2023-01-18T11:01:16.694Z,-11290.19
2023-01-18T11:04:26.062Z,-11301.44
2023-01-18T11:07:32.396Z,-11295.25
2023-01-18T11:10:41.639Z,-11298.50
2023-01-18T11:13:50.845Z,-11291.59
2023-01-18T11:17:02.337Z,-11284.13
2023-01-18T11:20:16.974Z,-11283.13
2023-01-18T11:23:26.696Z,-11289.91
2023-01-18T11:26:34.571Z,-11286.66
2023-01-18T11:29:45.267Z,-11295.25
2023-01-18T11:32:53.015Z,-11308.75
2023-01-18T11:36:01.216Z,-11304.81
2023-01-18T11:39:26.961Z,-11304.25
2023-01-18T11:42:37.942Z,-11296.94
2023-01-18T11:45:53.629Z,-11288.78
2023-01-18T11:49:08.638Z,-11296.09
2023-01-18T11:52:25.064Z,-11290.47
2023-01-18T11:55:36.790Z,-11289.63
2023-01-18T11:58:45.381Z,-11283.28
2023-01-18T12:02:22.312Z,-11290.03
2023-01-18T12:05:39.459Z,-11293.13
2023-01-18T12:08:57.659Z,-11285.69
2023-01-18T12:12:19.944Z,-11283.84
2023-01-18T12:15:45.915Z,-11283.41
2023-01-18T12:19:18.676Z,-11278.34
2023-01-18T12:22:46.443Z,-11274.69
2023-01-18T12:26:13.109Z,-11274.97
2023-01-18T12:29:40.947Z,-11277.38
2023-01-18T12:33:02.408Z,-11279.19
2023-01-18T12:36:30.251Z,-11274.69
2023-01-18T12:39:56.967Z,-11272.72
2023-01-18T12:43:18.342Z,-11270.91
2023-01-18T12:46:29.015Z,-11264.00
2023-01-18T12:49:41.539Z,-11256.13
2023-01-18T12:52:52.436Z,-11251.75
2023-01-18T12:56:07.450Z,-11249.66
2023-01-18T12:59:19.076Z,-11248.25
2023-01-18T13:02:33.355Z,-11251.06
2023-01-18T13:05:52.572Z,-11250.34
2023-01-18T13:09:03.910Z,-11246.56
2023-01-18T13:12:10.849Z,-11252.75
2023-01-18T13:15:42.353Z,-11252.75
2023-01-18T13:18:55.947Z,-11255.56
2023-01-18T13:22:15.072Z,-11255.41
2023-01-18T13:25:33.674Z,-11260.19
2023-01-18T13:28:40.101Z,-11260.91
2023-01-18T13:31:48.113Z,-11261.47
2023-01-18T13:35:19.504Z,-11263.44
2023-01-18T13:38:40.943Z,-11266.53
2023-01-18T13:42:09.274Z,-11265.28
2023-01-18T13:45:19.387Z,-11265.13
2023-01-18T13:48:47.766Z,-11262.03
2023-01-18T13:51:54.724Z,-11270.63
2023-01-18T13:55:18.153Z,-11267.25
2023-01-18T13:58:28.080Z,-11263.72
2023-01-18T14:01:37.273Z,-11264.28
2023-01-18T14:04:43.757Z,-11265.41
2023-01-18T14:07:53.199Z,-11262.03
2023-01-18T14:11:05.632Z,-11259.50
2023-01-18T14:14:28.375Z,-11267.38
2023-01-18T14:17:41.705Z,-11261.75
2023-01-18T14:21:16.562Z,-11264.56
2023-01-18T14:24:55.609Z,-11264.00
2023-01-18T14:28:10.325Z,-11260.34
2023-01-18T14:31:21.092Z,-11260.34
2023-01-18T14:34:38.098Z,-11259.34
2023-01-18T14:37:44.516Z,-11261.31
2023-01-18T14:40:53.722Z,-11260.34
2023-01-18T14:44:01.778Z,-11256.41
2023-01-18T14:47:23.493Z,-11254.00
2023-01-18T14:50:34.567Z,-11254.56
2023-01-18T14:53:47.468Z,-11253.03
2023-01-18T14:57:02.173Z,-11252.19
2023-01-18T15:00:18.573Z,-11254.16
2023-01-18T15:03:27.635Z,-11252.75
2023-01-18T15:06:40.072Z,-11252.75
2023-01-18T15:09:47.861Z,-11250.34
2023-01-18T15:12:57.812Z,-11251.91
2023-01-18T15:16:07.740Z,-11250.78
2023-01-18T15:19:18.405Z,-11250.06
2023-01-18T15:22:30.671Z,-11251.75
2023-01-18T15:25:37.230Z,-11252.31
2023-01-18T15:28:43.437Z,-11250.63
2023-01-18T15:31:53.527Z,-11252.03
2023-01-18T15:35:01.283Z,-11251.91
2023-01-18T15:38:07.598Z,-11252.47
2023-01-18T15:41:16.113Z,-11251.91
2023-01-18T15:44:49.251Z,-11250.78
2023-01-18T15:47:58.798Z,-11252.03
2023-01-18T15:51:11.162Z,-11252.03
2023-01-18T15:54:20.852Z,-11251.34
2023-01-18T15:57:27.729Z,-11250.50
2023-01-18T16:00:41.228Z,-11249.09
2023-01-18T16:03:59.910Z,-11251.34
2023-01-18T16:07:36.475Z,-11249.94
2023-01-18T16:10:50.124Z,-11249.37
2023-01-18T16:13:59.183Z,-11250.06
2023-01-18T16:17:07.701Z,-11250.78
2023-01-18T16:20:18.030Z,-11249.09
2023-01-18T16:23:25.611Z,-11249.22
2023-01-18T16:26:32.764Z,-11248.09
2023-01-18T16:29:45.094Z,-11248.53
2023-01-18T16:32:51.393Z,-11248.09
2023-01-18T16:35:59.211Z,-11247.13
2023-01-18T16:39:05.545Z,-11245.44
2023-01-18T16:42:13.255Z,-11246.56
2023-01-18T16:45:19.603Z,-11247.81
2023-01-18T16:48:28.233Z,-11246.84
2023-01-18T16:51:36.281Z,-11246.56
2023-01-18T16:54:43.919Z,-11247.41
2023-01-18T16:57:51.712Z,-11245.28
2023-01-18T17:01:03.273Z,-11244.31
2023-01-18T17:04:11.678Z,-11246.00
2023-01-18T17:07:19.196Z,-11244.59
2023-01-18T17:10:31.906Z,-11244.72
2023-01-18T17:13:38.208Z,-11242.59
2023-01-18T17:16:45.221Z,-11240.63
2023-01-18T17:19:52.098Z,-11241.47
2023-01-18T17:23:03.611Z,-11240.22
2023-01-18T17:26:14.212Z,-11243.75
2023-01-18T17:29:22.149Z,-11242.19
2023-01-18T17:35:39.796Z,-11242.88
2023-01-18T17:38:47.355Z,-11241.19
2023-01-18T17:41:53.394Z,-11240.06
2023-01-18T17:45:03.946Z,-11240.34
2023-01-18T17:48:10.311Z,-11238.53
2023-01-18T17:51:16.631Z,-11240.34
2023-01-18T17:54:24.460Z,-11239.78
2023-01-18T17:57:30.774Z,-11238.38
2023-01-18T18:00:37.281Z,-11239.94
2023-01-18T18:03:48.047Z,-11235.88
2023-01-18T18:06:58.539Z,-11235.03
2023-01-18T18:10:06.423Z,-11235.59
2023-01-18T18:13:12.717Z,-11232.19
2023-01-18T18:16:19.433Z,-11232.63
2023-01-18T18:19:25.985Z,-11231.06
2023-01-18T18:22:32.544Z,-11233.19
2023-01-18T18:25:40.321Z,-11233.19
2023-01-18T18:28:46.441Z,-11235.31
2023-01-18T18:31:53.032Z,-11236.56
2023-01-18T18:34:59.442Z,-11234.03
2023-01-18T18:38:05.767Z,-11233.47
2023-01-18T18:41:13.759Z,-11235.59
2023-01-18T18:44:20.445Z,-11236.00
2023-01-18T18:47:27.161Z,-11237.28
2023-01-18T18:50:33.587Z,-11235.88
2023-01-18T18:53:40.224Z,-11237.28
2023-01-18T18:56:48.772Z,-11236.44
2023-01-18T18:59:55.542Z,-11237.56
2023-01-18T19:03:02.917Z,-11231.22
2023-01-18T19:06:09.870Z,-11237.97
2023-01-18T19:09:16.295Z,-11237.41
2023-01-18T19:12:23.841Z,-11238.66
2023-01-18T19:15:30.033Z,-11238.66
2023-01-18T19:18:37.198Z,-11238.25
2023-01-18T19:21:43.516Z,-11239.78
2023-01-18T19:24:49.849Z,-11240.63
2023-01-18T19:27:57.379Z,-11238.25
2023-01-18T19:31:05.657Z,-11238.38
2023-01-18T19:34:12.298Z,-11237.41
2023-01-18T19:37:18.767Z,-11236.56
2023-01-18T19:40:24.998Z,-11237.56
2023-01-18T19:43:34.442Z,-11234.31
2023-01-18T19:46:40.558Z,-11238.09
2023-01-18T19:49:46.705Z,-11237.56
2023-01-18T19:52:52.982Z,-11237.56
2023-01-18T19:56:06.919Z,-11237.97
2023-01-18T19:59:15.745Z,-11236.44
2023-01-18T20:02:22.685Z,-11239.22
2023-01-18T20:05:29.267Z,-11238.66
2023-01-18T20:08:35.791Z,-11237.13
2023-01-18T20:11:41.959Z,-11238.09
2023-01-18T20:14:50.215Z,-11241.47
2023-01-18T20:17:56.264Z,-11240.06
2023-01-18T20:21:06.699Z,-11237.69
2023-01-18T20:24:13.159Z,-11238.25
2023-01-18T20:27:19.905Z,-11237.56
2023-01-18T20:30:27.690Z,-11234.88
2023-01-18T20:33:35.411Z,-11239.78
2023-01-18T20:36:41.361Z,-11238.66
2023-01-18T20:39:47.538Z,-11237.28
2023-01-18T20:42:54.204Z,-11234.59
2023-01-18T20:46:02.922Z,-11241.47
2023-01-18T20:49:09.285Z,-11242.75
2023-01-18T20:52:15.629Z,-11240.06
2023-01-18T20:55:22.230Z,-11241.75
2023-01-18T20:58:29.448Z,-11240.63
2023-01-18T21:01:37.209Z,-11238.94
2023-01-18T21:04:43.729Z,-11240.22
2023-01-18T21:07:49.827Z,-11239.09
2023-01-18T21:10:56.380Z,-11239.50
2023-01-18T21:14:04.152Z,-11238.66
2023-01-18T21:17:12.034Z,-11240.50
2023-01-18T21:20:18.690Z,-11238.94
2023-01-18T21:23:27.189Z,-11241.19
2023-01-18T21:26:33.959Z,-11239.94
2023-01-18T21:29:40.583Z,-11241.63
2023-01-18T21:32:48.997Z,-11240.91
2023-01-18T21:35:56.217Z,-11240.91
2023-01-18T21:39:03.032Z,-11243.03
2023-01-18T21:42:28.674Z,-11245.16
2023-01-18T21:45:53.010Z,-11238.81
2023-01-18T21:49:04.462Z,-11237.84
2023-01-18T21:52:28.431Z,-11235.72
2023-01-18T21:55:35.556Z,-11236.44
2023-01-18T21:58:54.173Z,-11235.88
2023-01-18T22:02:00.808Z,-11235.59
2023-01-18T22:05:09.989Z,-11235.03
2023-01-18T22:08:16.484Z,-11238.94
2023-01-18T22:11:22.681Z,-11241.19
2023-01-18T22:14:29.066Z,-11240.78
2023-01-18T22:17:35.308Z,-11241.91
2023-01-18T22:20:42.795Z,-11243.59
2023-01-18T22:23:49.432Z,-11244.44
2023-01-18T22:26:55.567Z,-11245.56
2023-01-18T22:30:02.197Z,-11246.00
2023-01-18T22:33:08.497Z,-11247.69
2023-01-18T22:36:16.930Z,-11246.00
2023-01-18T22:39:23.306Z,-11249.09
2023-01-18T22:42:30.229Z,-11244.88
2023-01-18T22:45:36.595Z,-11245.72
2023-01-18T22:48:43.244Z,-11246.41
2023-01-18T22:51:50.545Z,-11246.84
2023-01-18T22:54:59.357Z,-11243.47
2023-01-18T22:58:06.018Z,-11245.84
2023-01-18T23:01:16.812Z,-11243.59
2023-01-18T23:04:24.414Z,-11247.25
2023-01-18T23:07:34.671Z,-11245.72
2023-01-18T23:10:41.306Z,-11245.44
2023-01-18T23:14:10.231Z,-11242.59
2023-01-18T23:17:34.475Z,-11244.72
2023-01-18T23:20:40.943Z,-11242.31
2023-01-18T23:23:48.515Z,-11243.59
2023-01-18T23:26:54.862Z,-11242.31
2023-01-18T23:30:02.638Z,-11240.63
2023-01-18T23:33:09.080Z,-11237.56
2023-01-18T23:36:15.644Z,-11240.50
2023-01-18T23:39:41.218Z,-11241.34
2023-01-18T23:43:04.875Z,-11237.97
2023-01-18T23:46:28.819Z,-11240.22
2023-01-18T23:49:52.718Z,-11236.44
2023-01-18T23:53:18.773Z,-11236.72
2023-01-18T23:56:29.035Z,-11234.19
2023-01-18T23:59:42.352Z,-11235.44
